Koho Maru No.18 — JK5320 — position and weather

sailwx.info

Track history (hours):
 
Tides and Currents Weather Stations Pressure Air Temp Water Temp Dewpoint Dewpoint Depression Visibility Wind Speed Wind Dir Waves Ship Positions

Koho Maru No.18

Last reported at 2017-Oct-16 17:01 UTC. Time now 2017-Oct-17 05:54 UTC.
Position N 35°28' E 139°55'.

Length 70 m; draft 4.4 m.

Type: Tanker. MMSI: 431400496.

Date/timePositionNaut miles runAvg speedWind from/ knotsBaromVisibWave heightAir tempDewpointWater temp
2017-Oct-16 17:01N 35°28' E 139°55'0 0.1
2017-Oct-16 16:55N 35°28' E 139°55'0 0.0
2017-Oct-16 16:22N 35°28' E 139°55'0 0.0
2017-Oct-16 15:58N 35°28' E 139°55'0 0.0
2017-Oct-16 15:28N 35°28' E 139°55'0 0.0
2017-Oct-16 14:58N 35°28' E 139°55'0 0.0
2017-Oct-16 13:39N 35°28' E 139°55'0 1.5
2017-Oct-16 13:30N 35°28' E 139°55'510.2
2017-Oct-16 13:00N 35°27' E 139°49'611.5
2017-Oct-16 12:30N 35°22' E 139°45'510.9
2017-Oct-16 12:00N 35°17' E 139°46'510.7
2017-Oct-16 11:30N 35°11' E 139°46'611.8
2017-Oct-16 11:00N 35°06' E 139°44'611.4
2017-Oct-16 10:30N 35°01' E 139°40'611.6
2017-Oct-16 10:00N 34°58' E 139°34'  
Track history (hours):
 
Tides and Currents Weather Stations Pressure Air Temp Water Temp Dewpoint Dewpoint Depression Visibility Wind Speed Wind Dir Waves Ship Positions

Koho Maru No.18

Last reported at 2017-Oct-16 17:01 UTC. Time now 2017-Oct-17 05:54 UTC.
Position N 35°28' E 139°55'.

Length 70 m; draft 4.4 m.

Type: Tanker. MMSI: 431400496.

Date/timePositionNaut miles runAvg speedWind from/ knotsBaromVisibWave heightAir tempDewpointWater temp
2017-Oct-16 17:01N 35°28' E 139°55'0 0.1
2017-Oct-16 16:55N 35°28' E 139°55'0 0.0
2017-Oct-16 16:22N 35°28' E 139°55'0 0.0
2017-Oct-16 15:58N 35°28' E 139°55'0 0.0
2017-Oct-16 15:28N 35°28' E 139°55'0 0.0
2017-Oct-16 14:58N 35°28' E 139°55'0 0.0
2017-Oct-16 13:39N 35°28' E 139°55'0 1.5
2017-Oct-16 13:30N 35°28' E 139°55'510.2
2017-Oct-16 13:00N 35°27' E 139°49'611.5
2017-Oct-16 12:30N 35°22' E 139°45'510.9
2017-Oct-16 12:00N 35°17' E 139°46'510.7
2017-Oct-16 11:30N 35°11' E 139°46'611.8
2017-Oct-16 11:00N 35°06' E 139°44'611.4
2017-Oct-16 10:30N 35°01' E 139°40'611.6
2017-Oct-16 10:00N 34°58' E 139°34'  

Dump ship's entire track history